Time;durP1;ratioP1;P1;durP2;ratioP2;P2;SDS_P1;SDS_P2;PMS_P1;PMS_P2;Temp;Humidity;BMP_temperature;BMP_pressure;BME280_temperature;BME280_humidity;BME280_pressure;Samples;Min_cycle;Max_cycle;Signal;HPM_P1;HPM_P2
2021/03/31 00:00:20;;;;;;;27.88;14.10;;;;;;;9.84;84.48;101897.84;4980141;28;20069;-50
2021/03/31 00:02:49;;;;;;;23.00;13.70;;;;;;;10.02;82.85;101900.41;4987051;28;20054;-48
2021/03/31 00:05:15;;;;;;;24.95;14.75;;;;;;;9.48;84.74;101896.97;4987149;28;20054;-48
2021/03/31 00:07:42;;;;;;;19.58;13.90;;;;;;;9.25;86.34;101891.59;4987159;28;20497;-54
2021/03/31 00:10:19;;;;;;;24.25;15.30;;;;;;;9.02;87.67;101898.09;4987524;28;20469;-53
2021/03/31 00:12:46;;;;;;;26.30;15.27;;;;;;;8.96;89.21;101890.06;4987081;28;20416;-54
2021/03/31 00:15:13;;;;;;;27.13;15.13;;;;;;;9.07;89.41;101888.97;4986938;28;20793;-47
2021/03/31 00:17:40;;;;;;;19.55;14.00;;;;;;;8.99;89.47;101891.94;4986918;28;20069;-51
2021/03/31 00:20:07;;;;;;;21.67;15.07;;;;;;;9.10;89.32;101881.44;4987748;28;20530;-53
2021/03/31 00:22:34;;;;;;;21.10;13.60;;;;;;;9.18;88.48;101880.16;4987280;28;20065;-55
2021/03/31 00:25:01;;;;;;;23.55;13.20;;;;;;;9.00;89.10;101875.78;4987362;28;20077;-54
2021/03/31 00:27:28;;;;;;;25.48;14.52;;;;;;;9.06;89.27;101879.56;4986974;28;20417;-48
2021/03/31 00:29:54;;;;;;;20.10;12.55;;;;;;;8.93;89.10;101872.06;4986531;28;20054;-51
2021/03/31 00:32:21;;;;;;;27.83;13.05;;;;;;;9.04;89.68;101873.47;4986995;28;20066;-54
2021/03/31 00:34:47;;;;;;;29.75;17.52;;;;;;;9.38;88.71;101876.06;4986802;28;20054;-55
2021/03/31 00:37:14;;;;;;;20.33;13.38;;;;;;;9.26;87.83;101869.44;4986707;28;20057;-51
2021/03/31 00:39:40;;;;;;;23.65;15.00;;;;;;;9.76;85.18;101871.06;4986486;28;20512;-49
2021/03/31 00:42:07;;;;;;;20.20;13.75;;;;;;;9.91;84.50;101872.66;4987192;28;20049;-52
2021/03/31 00:44:34;;;;;;;19.08;13.05;;;;;;;9.91;85.61;101872.66;4986070;28;20052;-49
2021/03/31 00:47:01;;;;;;;20.60;14.50;;;;;;;9.46;86.34;101858.53;4986520;28;20058;-47
2021/03/31 00:49:28;;;;;;;27.63;15.23;;;;;;;9.06;88.38;101858.22;4986523;28;20080;-54
2021/03/31 00:51:55;;;;;;;24.35;15.43;;;;;;;9.16;88.77;101857.91;4987194;28;20046;-49
2021/03/31 00:54:21;;;;;;;21.98;15.65;;;;;;;8.81;89.53;101862.06;4986247;28;20062;-47
2021/03/31 00:56:48;;;;;;;19.88;13.73;;;;;;;8.61;90.22;101855.06;4986104;28;20109;-51
2021/03/31 00:59:14;;;;;;;25.40;16.25;;;;;;;8.46;91.30;101856.78;4986261;28;20532;-48
2021/03/31 01:01:41;;;;;;;25.77;16.38;;;;;;;8.45;91.72;101852.50;4986229;28;20046;-52
2021/03/31 01:04:08;;;;;;;23.88;14.70;;;;;;;8.26;92.38;101856.59;4986219;28;20061;-55
2021/03/31 01:06:34;;;;;;;22.98;14.25;;;;;;;8.31;92.10;101857.72;4986009;28;20046;-50
2021/03/31 01:09:03;;;;;;;21.15;14.80;;;;;;;8.13;93.21;101851.63;4986744;28;20459;-50
2021/03/31 01:11:52;;;;;;;22.63;13.68;;;;;;;8.25;93.51;101854.84;4986413;28;20120;-49
2021/03/31 01:14:25;;;;;;;19.58;13.23;;;;;;;8.32;93.07;101846.72;4985850;28;20076;-51
2021/03/31 01:16:57;;;;;;;25.17;14.75;;;;;;;8.21;93.78;101844.38;4986135;28;20051;-53
2021/03/31 01:19:40;;;;;;;22.42;14.35;;;;;;;8.26;93.50;101854.03;4986569;28;20048;-52
2021/03/31 01:22:22;;;;;;;19.77;12.90;;;;;;;8.29;93.10;101851.66;4986638;28;20053;-50
2021/03/31 01:25:10;;;;;;;22.27;13.60;;;;;;;8.44;92.72;101854.16;4986275;28;20501;-53
2021/03/31 01:27:54;;;;;;;21.73;12.73;;;;;;;8.33;93.20;101855.25;4985862;28;20077;-49
2021/03/31 01:30:30;;;;;;;22.50;13.40;;;;;;;8.24;93.82;101855.63;4985891;28;20046;-50
2021/03/31 01:33:32;;;;;;;19.17;12.32;;;;;;;8.23;93.53;101855.53;4986072;28;20485;-49
2021/03/31 01:35:59;;;;;;;19.70;13.30;;;;;;;8.53;91.85;101859.75;4963167;28;20081;-54
2021/03/31 01:38:27;;;;;;;17.15;11.27;;;;;;;8.94;89.82;101858.47;4985674;28;20050;-51
2021/03/31 01:40:57;;;;;;;19.55;13.25;;;;;;;8.62;90.40;101856.81;4986400;28;20129;-47
2021/03/31 01:43:24;;;;;;;22.67;12.70;;;;;;;8.44;91.69;101861.84;4985740;28;20060;-49
2021/03/31 01:45:54;;;;;;;17.85;11.35;;;;;;;8.62;91.25;101861.94;4985462;28;20050;-50
2021/03/31 01:48:25;;;;;;;18.50;11.90;;;;;;;8.68;90.40;101855.44;4985657;28;20038;-48
2021/03/31 01:51:02;;;;;;;18.20;12.15;;;;;;;8.63;90.18;101853.47;4986256;28;20120;-50
2021/03/31 01:53:29;;;;;;;19.92;11.82;;;;;;;8.56;90.76;101859.06;4985072;28;20042;-54
2021/03/31 01:55:56;;;;;;;18.45;12.60;;;;;;;8.33;91.39;101840.81;4985689;28;20051;-53
2021/03/31 01:58:25;;;;;;;18.00;13.10;;;;;;;8.13;92.41;101844.88;4985366;28;20640;-51
2021/03/31 02:00:53;;;;;;;22.52;13.02;;;;;;;8.05;92.83;101846.13;4986114;28;20100;-52
2021/03/31 02:03:22;;;;;;;21.10;13.80;;;;;;;7.88;93.73;101851.97;4985316;28;20054;-52
2021/03/31 02:05:49;;;;;;;17.05;12.85;;;;;;;7.90;94.01;101845.25;4985213;28;20054;-50
2021/03/31 02:08:19;;;;;;;18.30;12.07;;;;;;;7.91;93.14;101840.25;4977355;28;20082;-50
2021/03/31 02:10:45;;;;;;;19.02;12.27;;;;;;;7.75;93.65;101850.41;4984642;28;20050;-51
2021/03/31 02:13:12;;;;;;;22.60;15.55;;;;;;;7.62;94.40;101851.38;4985595;28;20061;-52
2021/03/31 02:15:40;;;;;;;24.55;14.63;;;;;;;7.49;94.88;101840.41;4985224;28;20057;-49
2021/03/31 02:18:11;;;;;;;19.88;14.73;;;;;;;7.62;94.29;101838.63;4985719;28;20390;-49
2021/03/31 02:20:38;;;;;;;24.88;16.45;;;;;;;7.40;95.05;101838.22;4985218;28;20160;-51
2021/03/31 02:23:05;;;;;;;22.33;16.05;;;;;;;7.29;96.11;101845.25;4985689;28;20057;-53
2021/03/31 02:25:33;;;;;;;24.23;15.73;;;;;;;7.15;96.72;101843.56;4984961;28;20053;-51
2021/03/31 02:28:01;;;;;;;23.98;15.48;;;;;;;7.04;97.54;101844.63;4985438;28;20058;-49
2021/03/31 02:30:29;;;;;;;22.92;14.88;;;;;;;7.06;97.83;101838.81;4985194;28;20576;-53
2021/03/31 02:33:00;;;;;;;23.38;15.45;;;;;;;7.12;97.08;101835.78;4984681;28;20053;-51
2021/03/31 02:35:29;;;;;;;25.02;15.15;;;;;;;6.97;98.23;101830.63;4984498;28;20417;-50
2021/03/31 02:38:06;;;;;;;28.08;15.68;;;;;;;6.89;99.21;101827.66;4986021;28;20398;-52
2021/03/31 02:40:34;;;;;;;20.67;14.77;;;;;;;7.01;98.82;101835.13;4984720;28;20514;-48
2021/03/31 02:43:06;;;;;;;23.27;15.35;;;;;;;6.96;98.46;101826.34;4985439;28;20058;-55
2021/03/31 02:45:34;;;;;;;22.45;16.23;;;;;;;6.91;99.33;101827.75;4984616;28;20056;-50
2021/03/31 02:48:06;;;;;;;24.85;15.23;;;;;;;6.95;99.84;101829.69;4985245;28;20057;-52
2021/03/31 02:50:34;;;;;;;21.10;14.70;;;;;;;7.39;97.01;101821.16;4984798;28;20058;-54
2021/03/31 02:53:03;;;;;;;20.98;14.38;;;;;;;7.04;98.18;101825.13;4985270;28;20169;-51
2021/03/31 02:55:30;;;;;;;22.27;16.10;;;;;;;6.86;99.62;101817.28;4984739;28;20069;-50
2021/03/31 02:58:00;;;;;;;25.88;15.60;;;;;;;6.82;99.97;101819.56;4985689;28;20058;-52
2021/03/31 03:00:27;;;;;;;24.33;15.85;;;;;;;6.71;100.00;101824.03;4984531;28;20047;-52
2021/03/31 03:02:55;;;;;;;29.30;16.33;;;;;;;6.67;100.00;101816.13;4985189;28;20085;-49
2021/03/31 03:05:22;;;;;;;22.27;14.93;;;;;;;7.06;99.87;101815.03;4984718;28;20080;-49
2021/03/31 03:07:49;;;;;;;21.67;15.40;;;;;;;7.05;98.75;101819.25;4985595;28;20054;-57
2021/03/31 03:10:16;;;;;;;19.65;14.52;;;;;;;7.02;99.41;101815.63;4980955;28;20060;-54
2021/03/31 03:12:48;;;;;;;24.48;15.32;;;;;;;7.29;98.31;101813.78;4988809;28;20050;-54
2021/03/31 03:15:16;;;;;;;28.77;15.40;;;;;;;7.50;96.47;101812.47;4988567;28;20050;-50
2021/03/31 03:17:43;;;;;;;31.65;17.27;;;;;;;6.96;98.08;101802.56;4988276;28;20523;-55
2021/03/31 03:20:11;;;;;;;32.97;18.25;;;;;;;6.61;100.00;101801.38;4989252;28;20042;-54
2021/03/31 03:22:40;;;;;;;27.35;17.73;;;;;;;6.48;100.00;101804.84;4988273;28;20057;-51
2021/03/31 03:25:11;;;;;;;26.15;16.55;;;;;;;6.48;100.00;101806.50;4988792;28;20046;-54
2021/03/31 03:27:41;;;;;;;27.10;17.58;;;;;;;6.50;100.00;101804.94;4988261;28;20504;-50
2021/03/31 03:30:12;;;;;;;27.80;18.13;;;;;;;6.40;100.00;101808.59;4988588;28;20050;-48
2021/03/31 03:32:40;;;;;;;28.98;17.73;;;;;;;6.40;100.00;101812.81;4988344;28;20049;-53
2021/03/31 03:35:12;;;;;;;29.35;18.25;;;;;;;6.33;100.00;101807.34;4989153;28;20050;-53
2021/03/31 03:37:41;;;;;;;30.48;18.17;;;;;;;6.29;100.00;101807.06;4988252;28;20046;-54
2021/03/31 03:40:09;;;;;;;26.20;17.85;;;;;;;6.32;100.00;101807.25;4988540;28;20137;-49
2021/03/31 03:42:37;;;;;;;27.42;17.15;;;;;;;6.26;100.00;101805.22;4987993;28;20050;-50
2021/03/31 03:45:06;;;;;;;23.95;16.88;;;;;;;6.27;100.00;101808.63;4988641;28;20050;-53
2021/03/31 03:47:33;;;;;;;22.65;16.23;;;;;;;6.38;100.00;101805.09;4987657;28;20054;-54
2021/03/31 03:50:03;;;;;;;27.92;16.85;;;;;;;6.84;100.00;101805.25;4988351;28;20112;-54
2021/03/31 03:52:30;;;;;;;27.38;18.33;;;;;;;6.63;100.00;101803.22;4987994;28;20500;-51
2021/03/31 03:54:57;;;;;;;26.05;17.67;;;;;;;6.41;100.00;101797.63;4988699;28;20092;-55
2021/03/31 03:57:25;;;;;;;30.23;18.70;;;;;;;6.26;100.00;101799.25;4988131;28;20057;-51
2021/03/31 03:59:53;;;;;;;31.80;18.48;;;;;;;6.15;100.00;101805.31;4988327;28;20531;-54
2021/03/31 04:02:20;;;;;;;29.38;18.27;;;;;;;6.29;100.00;101802.88;4970018;28;20415;-51
2021/03/31 04:04:47;;;;;;;27.00;18.08;;;;;;;6.22;100.00;101795.63;4987509;28;20054;-51
2021/03/31 04:07:16;;;;;;;32.17;19.33;;;;;;;6.16;100.00;101797.81;4987349;28;20058;-54
2021/03/31 04:09:46;;;;;;;25.73;17.17;;;;;;;7.40;98.75;101797.47;4987264;28;20058;-55
2021/03/31 04:12:15;;;;;;;29.38;19.13;;;;;;;7.51;96.12;101790.41;4986242;28;20050;-50
2021/03/31 04:14:42;;;;;;;24.15;17.08;;;;;;;7.40;96.40;101793.25;4986981;28;20054;-47
2021/03/31 04:17:12;;;;;;;27.27;16.92;;;;;;;7.44;95.83;101790.84;4987095;28;20578;-50
2021/03/31 04:19:41;;;;;;;27.00;16.70;;;;;;;6.84;98.19;101790.88;4985645;28;20129;-55
2021/03/31 04:22:09;;;;;;;23.02;16.25;;;;;;;6.70;99.08;101783.19;4987986;28;20050;-50
2021/03/31 04:24:38;;;;;;;27.58;17.48;;;;;;;6.58;100.00;101789.34;4985526;28;20539;-54
2021/03/31 04:27:07;;;;;;;25.45;16.67;;;;;;;6.56;100.00;101790.00;4986052;28;20421;-50
2021/03/31 04:29:34;;;;;;;28.77;17.65;;;;;;;6.81;100.00;101787.28;4987304;28;20579;-56
2021/03/31 04:32:02;;;;;;;25.40;16.10;;;;;;;6.92;100.00;101793.84;4987478;28;20405;-56
2021/03/31 04:34:29;;;;;;;26.23;16.73;;;;;;;7.07;98.81;101782.03;4987257;28;20057;-52
2021/03/31 04:36:56;;;;;;;34.80;18.85;;;;;;;7.05;97.84;101777.63;4987640;28;20050;-56
2021/03/31 04:39:25;;;;;;;41.92;20.02;;;;;;;7.05;97.97;101780.16;4987493;28;20042;-52
2021/03/31 04:41:51;;;;;;;34.75;19.35;;;;;;;6.58;99.92;101784.25;4987313;28;20084;-53
2021/03/31 04:44:18;;;;;;;36.30;18.88;;;;;;;6.22;100.00;101789.66;4986596;28;20420;-53
2021/03/31 04:46:47;;;;;;;37.45;17.65;;;;;;;6.31;100.00;101785.13;4985468;28;20050;-54
2021/03/31 04:49:13;;;;;;;44.00;18.65;;;;;;;6.34;100.00;101781.13;4986447;28;20046;-50
2021/03/31 04:51:40;;;;;;;32.65;17.45;;;;;;;6.34;100.00;101782.78;4986306;28;20050;-52
2021/03/31 04:54:06;;;;;;;32.60;17.42;;;;;;;6.75;100.00;101780.16;4986859;28;20053;-50
2021/03/31 04:56:33;;;;;;;41.30;18.80;;;;;;;6.63;100.00;101779.44;4985761;28;20058;-52
2021/03/31 04:58:59;;;;;;;45.35;18.67;;;;;;;6.38;100.00;101783.06;4986708;28;20057;-52
2021/03/31 05:01:26;;;;;;;37.80;18.75;;;;;;;6.32;100.00;101780.13;4986498;28;20096;-56
2021/03/31 05:03:52;;;;;;;48.33;20.77;;;;;;;7.15;100.00;101773.13;4985900;28;20050;-47
2021/03/31 05:06:19;;;;;;;59.28;24.58;;;;;;;7.37;96.69;101774.34;4986152;28;20050;-56
2021/03/31 05:08:46;;;;;;;44.13;21.27;;;;;;;7.18;97.11;101766.47;4986242;28;20050;-49
2021/03/31 05:11:12;;;;;;;31.10;18.95;;;;;;;7.20;97.44;101767.41;4985805;28;20054;-54
2021/03/31 05:13:39;;;;;;;30.20;19.98;;;;;;;7.30;97.05;101767.13;4985851;28;20046;-54
2021/03/31 05:16:06;;;;;;;28.85;18.27;;;;;;;7.08;97.31;101754.88;4985250;28;20053;-51
2021/03/31 05:18:32;;;;;;;34.88;18.77;;;;;;;7.10;97.14;101760.94;4984487;28;20051;-53
2021/03/31 05:20:59;;;;;;;26.38;16.70;;;;;;;7.33;96.27;101759.69;4985235;28;20393;-50
2021/03/31 05:23:26;;;;;;;28.70;17.67;;;;;;;7.46;95.66;101751.91;4984515;28;20042;-52
2021/03/31 05:25:52;;;;;;;34.42;18.17;;;;;;;7.66;95.14;101758.97;4985729;28;20049;-48
2021/03/31 05:28:19;;;;;;;30.80;16.52;;;;;;;7.71;95.28;101749.03;4985972;28;20050;-48
2021/03/31 05:30:46;;;;;;;28.77;16.08;;;;;;;7.77;94.69;101748.50;4990799;28;20054;-51
2021/03/31 05:33:12;;;;;;;26.13;15.05;;;;;;;7.80;95.42;101746.09;4981430;28;20050;-52
2021/03/31 05:35:39;;;;;;;28.60;16.35;;;;;;;7.50;96.36;101743.66;4962979;28;20043;-48
2021/03/31 05:38:05;;;;;;;26.30;15.80;;;;;;;7.62;96.30;101738.34;4984713;28;20052;-47
2021/03/31 05:40:32;;;;;;;24.88;14.35;;;;;;;7.66;96.41;101732.59;4984699;28;20043;-47
2021/03/31 05:43:00;;;;;;;20.10;14.52;;;;;;;8.12;94.36;101737.59;4985618;28;20085;-47
2021/03/31 05:45:31;;;;;;;23.58;14.15;;;;;;;8.35;93.12;101736.25;4986181;28;20397;-48
2021/03/31 05:47:58;;;;;;;25.85;16.50;;;;;;;7.52;95.88;101731.84;4984064;28;20053;-47
2021/03/31 05:50:26;;;;;;;29.40;16.50;;;;;;;7.33;97.68;101735.06;4985541;28;20054;-51
2021/03/31 05:52:53;;;;;;;24.50;16.30;;;;;;;7.27;98.21;101728.78;4985399;28;20046;-48
2021/03/31 05:55:20;;;;;;;27.40;16.10;;;;;;;7.50;98.11;101736.00;4974865;28;20050;-49
2021/03/31 05:57:46;;;;;;;31.00;16.50;;;;;;;7.70;97.66;101731.97;4982572;28;20058;-55
2021/03/31 06:00:16;;;;;;;23.52;16.23;;;;;;;7.82;95.96;101732.66;4984264;28;20046;-55
2021/03/31 06:02:44;;;;;;;26.30;16.30;;;;;;;7.52;98.20;101736.09;4984999;28;20046;-55
2021/03/31 06:05:14;;;;;;;26.52;16.13;;;;;;;7.72;97.86;101735.50;4985430;28;20045;-51
2021/03/31 06:07:45;;;;;;;27.75;14.35;;;;;;;7.86;97.95;101733.72;4984678;28;20042;-52
2021/03/31 06:10:16;;;;;;;23.00;14.38;;;;;;;7.89;98.08;101731.28;4985970;28;20065;-50
2021/03/31 06:12:47;;;;;;;20.38;14.07;;;;;;;8.12;97.33;101737.59;4985190;28;20046;-53
2021/03/31 06:15:31;;;;;;;26.15;14.70;;;;;;;8.32;96.66;101736.09;4984424;28;20039;-49
2021/03/31 06:18:09;;;;;;;22.83;13.82;;;;;;;8.58;95.18;101734.91;4985542;28;20049;-48
2021/03/31 06:20:41;;;;;;;25.45;15.52;;;;;;;8.80;94.78;101730.06;4984809;28;20050;-52
2021/03/31 06:25:58;;;;;;;24.88;14.15;;;;;;;9.14;92.99;101734.25;4984948;28;20046;-50
2021/03/31 06:28:33;;;;;;;23.23;13.40;;;;;;;9.76;90.52;101732.91;4985376;28;20077;-53
2021/03/31 06:31:20;;;;;;;19.77;12.88;;;;;;;10.25;87.22;101725.75;4981839;28;20495;-49
2021/03/31 06:33:49;;;;;;;21.10;12.10;;;;;;;10.56;86.15;101727.97;4981881;28;20065;-51
2021/03/31 06:36:18;;;;;;;19.58;11.82;;;;;;;12.69;76.63;101733.53;4982967;28;20759;-50
2021/03/31 06:38:47;;;;;;;25.08;11.68;;;;;;;12.69;74.34;101730.97;4983979;28;20049;-51
2021/03/31 06:41:26;;;;;;;25.70;11.60;;;;;;;13.91;68.38;101736.50;4984484;28;20424;-50
2021/03/31 06:46:48;;;;;;;19.80;11.43;;;;;;;15.07;63.94;101734.50;4988355;28;20038;-53
2021/03/31 06:49:15;;;;;;;20.40;10.82;;;;;;;15.02;64.63;101725.72;4988906;28;20053;-51
2021/03/31 06:51:42;;;;;;;22.85;11.30;;;;;;;15.17;64.78;101728.69;4988652;28;20042;-50
2021/03/31 06:54:17;;;;;;;16.48;10.95;;;;;;;15.50;64.28;101730.31;4988170;28;20048;-52
2021/03/31 06:56:45;;;;;;;21.20;11.35;;;;;;;15.90;62.73;101736.34;4988476;28;20046;-51
2021/03/31 06:59:12;;;;;;;21.30;10.90;;;;;;;16.21;60.22;101728.34;4989187;28;20056;-47
2021/03/31 07:01:40;;;;;;;17.95;10.77;;;;;;;16.79;58.60;101729.44;4987461;28;20046;-52
2021/03/31 07:04:06;;;;;;;19.92;12.57;;;;;;;17.24;56.81;101730.13;4987913;28;20233;-50
2021/03/31 07:06:33;;;;;;;21.77;12.20;;;;;;;17.48;55.10;101732.25;4987372;28;20443;-53
2021/03/31 07:09:00;;;;;;;20.35;12.10;;;;;;;17.53;55.95;101723.69;4988110;28;20038;-55
2021/03/31 07:11:39;;;;;;;16.52;11.43;;;;;;;18.10;53.31;101733.91;4989393;28;20531;-53
2021/03/31 07:14:08;;;;;;;18.63;11.85;;;;;;;17.71;54.41;101730.81;4987091;28;20497;-51
2021/03/31 07:16:37;;;;;;;21.38;12.10;;;;;;;17.40;55.54;101741.63;4985014;28;20057;-52
2021/03/31 07:19:04;;;;;;;18.50;11.25;;;;;;;17.78;54.38;101731.78;4987431;28;20043;-54
2021/03/31 07:21:38;;;;;;;17.23;11.15;;;;;;;16.50;59.47;101725.44;4987667;28;20563;-50
2021/03/31 07:24:05;;;;;;;18.52;12.07;;;;;;;16.20;60.96;101730.94;4982528;28;20046;-49
2021/03/31 07:26:33;;;;;;;21.52;12.52;;;;;;;16.09;61.53;101732.44;4986122;28;20386;-56
2021/03/31 07:29:00;;;;;;;19.02;11.45;;;;;;;16.49;59.37;101723.69;4988255;28;20050;-54
2021/03/31 07:31:29;;;;;;;22.33;13.43;;;;;;;16.47;59.38;101725.41;4987675;28;20060;-50
2021/03/31 07:34:19;;;;;;;20.02;11.32;;;;;;;17.25;57.51;101739.66;4969739;28;20047;-51
2021/03/31 07:36:50;;;;;;;21.63;12.45;;;;;;;17.23;58.28;101736.16;4986444;28;20503;-52
2021/03/31 07:39:18;;;;;;;17.63;11.93;;;;;;;18.45;53.69;101732.56;4985979;28;20053;-54
2021/03/31 07:41:45;;;;;;;18.35;12.25;;;;;;;18.32;53.44;101733.28;4986901;28;20046;-51
2021/03/31 07:44:18;;;;;;;20.20;11.63;;;;;;;17.16;57.54;101724.00;4987839;28;20050;-52
2021/03/31 07:46:47;;;;;;;24.00;12.40;;;;;;;17.02;57.38;101729.81;4986961;28;20129;-51
2021/03/31 07:49:15;;;;;;;26.13;13.30;;;;;;;16.16;62.03;101726.53;4987222;28;20416;-53
2021/03/31 07:52:03;;;;;;;23.95;12.73;;;;;;;16.27;59.83;101722.47;4987496;28;20050;-53
2021/03/31 07:54:31;;;;;;;30.98;13.68;;;;;;;16.42;60.04;101730.50;4985867;28;20050;-52
2021/03/31 07:57:31;;;;;;;21.42;12.80;;;;;;;16.19;60.67;101734.34;4988024;28;20056;-52
2021/03/31 07:59:57;;;;;;;20.08;12.00;;;;;;;16.06;62.67;101729.78;4988353;28;20057;-53
2021/03/31 08:02:25;;;;;;;25.50;12.43;;;;;;;16.09;61.10;101727.28;4987485;28;20072;-54
2021/03/31 08:05:06;;;;;;;21.88;12.80;;;;;;;16.47;60.41;101723.69;4987860;28;20050;-52
2021/03/31 08:07:33;;;;;;;24.65;12.82;;;;;;;16.89;60.70;101720.13;4986996;28;20053;-50
2021/03/31 08:10:32;;;;;;;24.10;12.48;;;;;;;17.37;58.38;101720.84;4988190;28;20452;-55
2021/03/31 08:13:41;;;;;;;25.17;11.95;;;;;;;18.05;56.67;101715.72;4987974;28;20286;-51
2021/03/31 08:16:34;;;;;;;24.08;12.98;;;;;;;17.96;55.68;101721.66;4987225;28;20046;-51
2021/03/31 08:19:05;;;;;;;24.70;13.10;;;;;;;17.64;56.84;101717.75;4987652;28;20039;-54
2021/03/31 08:21:35;;;;;;;24.20;13.80;;;;;;;18.01;54.03;101729.47;4986517;28;20082;-54
2021/03/31 08:24:05;;;;;;;27.67;14.30;;;;;;;18.55;49.42;101729.22;4993436;28;20046;-51
2021/03/31 08:26:43;;;;;;;28.67;16.70;;;;;;;19.46;45.53;101737.69;4986771;28;20054;-53
2021/03/31 08:29:33;;;;;;;30.98;16.27;;;;;;;20.42;39.93;101732.91;4987368;28;20050;-54
2021/03/31 08:32:01;;;;;;;32.40;17.88;;;;;;;20.18;39.89;101723.31;4987363;28;20042;-51
2021/03/31 08:34:31;;;;;;;32.08;18.50;;;;;;;19.71;40.22;101730.97;4987102;28;20066;-50
2021/03/31 08:36:59;;;;;;;27.70;17.05;;;;;;;19.43;38.24;101729.91;4987524;28;20432;-54
2021/03/31 08:39:26;;;;;;;31.30;18.38;;;;;;;18.91;41.54;101722.63;4987100;28;20548;-51
2021/03/31 08:41:56;;;;;;;27.88;17.77;;;;;;;18.61;43.07;101728.38;4987333;28;20050;-54
2021/03/31 08:44:27;;;;;;;31.85;18.58;;;;;;;18.98;42.19;101728.72;4986796;28;20100;-52
2021/03/31 08:47:04;;;;;;;31.13;17.42;;;;;;;18.79;42.25;101718.22;4987024;28;20058;-54
2021/03/31 08:49:32;;;;;;;32.45;18.30;;;;;;;18.66;42.04;101720.66;4991304;28;20049;-52
2021/03/31 08:52:08;;;;;;;32.75;17.60;;;;;;;18.85;41.55;101716.50;4987118;28;20457;-51
2021/03/31 08:54:43;;;;;;;30.52;18.33;;;;;;;18.50;42.95;101717.91;4987009;28;20046;-50
2021/03/31 08:57:13;;;;;;;;;;;;;;;18.56;42.32;101709.31;4987669;28;20451;-54
2021/03/31 08:59:41;;;;;;;29.77;17.00;;;;;;;19.02;42.24;101710.59;4986893;28;19932;-55
2021/03/31 09:02:09;;;;;;;36.75;18.65;;;;;;;19.12;42.35;101715.84;4987142;28;20757;-48
2021/03/31 09:04:57;;;;;;;30.23;18.23;;;;;;;19.47;41.00;101708.28;4987483;28;20050;-51
2021/03/31 09:07:24;;;;;;;32.05;18.55;;;;;;;19.68;40.39;101710.13;4986129;28;20050;-50
2021/03/31 09:09:51;;;;;;;29.27;18.63;;;;;;;20.36;39.15;101712.09;4986438;28;20145;-53
2021/03/31 09:12:25;;;;;;;34.83;18.23;;;;;;;20.50;39.23;101712.16;4978774;28;20046;-49
2021/03/31 09:14:56;;;;;;;31.63;18.00;;;;;;;20.30;39.64;101702.56;4987053;28;20528;-55
2021/03/31 09:17:23;;;;;;;32.72;19.13;;;;;;;20.71;38.81;101695.69;4985189;28;20046;-49
2021/03/31 09:19:53;;;;;;;29.80;18.48;;;;;;;20.96;39.08;101701.75;4986824;28;20058;-54
2021/03/31 09:22:28;;;;;;;35.03;19.08;;;;;;;21.25;38.10;101697.34;4978863;28;20065;-50
2021/03/31 09:25:06;;;;;;;34.13;20.80;;;;;;;20.99;37.15;101697.41;4986545;28;20044;-50
2021/03/31 09:27:53;;;;;;;35.25;20.35;;;;;;;21.79;35.91;101698.06;4986328;28;20049;-54
2021/03/31 09:30:22;;;;;;;34.08;19.33;;;;;;;21.80;36.83;101699.78;4985926;28;24768;-52
2021/03/31 09:33:05;;;;;;;33.58;20.00;;;;;;;21.44;38.04;101692.09;4985798;28;20137;-55
2021/03/31 09:35:34;;;;;;;34.55;19.48;;;;;;;21.59;37.28;101685.13;4979877;28;20048;-53
2021/03/31 09:38:03;;;;;;;34.15;18.55;;;;;;;21.91;37.68;101685.81;4985281;28;20456;-54
2021/03/31 09:40:36;;;;;;;32.47;19.45;;;;;;;21.51;37.79;101679.06;4985359;28;20122;-50
2021/03/31 09:43:06;;;;;;;37.13;20.33;;;;;;;21.48;37.22;101684.28;4985890;28;20054;-53
2021/03/31 09:45:36;;;;;;;33.90;20.77;;;;;;;21.46;39.04;101678.22;4985156;28;20061;-52
2021/03/31 09:48:05;;;;;;;32.90;18.85;;;;;;;21.88;39.50;101672.81;4985674;28;20531;-51
2021/03/31 09:50:37;;;;;;;34.78;19.48;;;;;;;21.76;37.78;101676.34;4985549;28;20508;-51
2021/03/31 09:53:05;;;;;;;29.27;19.52;;;;;;;21.93;38.82;101674.50;4985244;28;20056;-48
2021/03/31 09:55:34;;;;;;;33.45;19.83;;;;;;;21.39;37.93;101663.44;4984722;28;20046;-52
2021/03/31 09:58:02;;;;;;;31.08;18.40;;;;;;;21.97;39.47;101665.81;4985879;28;20049;-50
2021/03/31 10:00:28;;;;;;;28.95;18.20;;;;;;;22.65;37.55;101661.00;4985421;28;20078;-52
2021/03/31 10:02:56;;;;;;;30.38;18.73;;;;;;;23.27;34.55;101669.97;4985792;28;20042;-51
2021/03/31 10:05:27;;;;;;;32.03;19.58;;;;;;;23.19;35.93;101668.31;4985267;28;20060;-53
2021/03/31 10:08:06;;;;;;;33.97;20.15;;;;;;;25.79;31.10;101667.69;4985266;28;20038;-53
2021/03/31 10:10:52;;;;;;;30.83;20.38;;;;;;;28.05;28.40;101670.47;4985075;28;20053;-52
2021/03/31 10:13:21;;;;;;;30.75;20.77;;;;;;;28.96;28.01;101674.50;4977737;28;20050;-48
2021/03/31 10:15:58;;;;;;;32.60;20.10;;;;;;;31.56;23.39;101681.59;4984878;28;20539;-49
2021/03/31 10:18:25;;;;;;;28.95;20.35;;;;;;;30.56;25.79;101669.25;4983708;28;20046;-53
2021/03/31 10:20:56;;;;;;;28.08;19.83;;;;;;;31.49;22.73;101669.59;4987208;28;20465;-54
2021/03/31 10:23:34;;;;;;;27.88;20.92;;;;;;;34.05;20.31;101668.75;4990503;28;20046;-48
2021/03/31 10:26:25;;;;;;;31.75;20.50;;;;;;;32.74;22.77;101673.22;4984571;28;20042;-50
2021/03/31 10:29:02;;;;;;;30.48;21.67;;;;;;;32.24;21.67;101661.56;4985628;28;20508;-49
2021/03/31 10:31:44;;;;;;;26.10;19.05;;;;;;;31.99;22.39;101655.75;4985140;28;20138;-48
2021/03/31 10:34:42;;;;;;;28.35;20.67;;;;;;;29.10;23.91;101640.56;4984267;28;20046;-48
2021/03/31 10:37:22;;;;;;;29.88;19.35;;;;;;;34.83;18.87;101653.50;4984979;28;20054;-48
2021/03/31 10:51:35;;;;;;;24.73;18.77;;;;;;;33.18;19.94;101637.22;4988223;28;20133;-51
2021/03/31 10:54:10;;;;;;;24.73;19.17;;;;;;;33.57;19.09;101630.72;4991421;28;20047;-51
2021/03/31 10:56:39;;;;;;;;;;;;;;;37.00;17.78;101642.91;4989411;28;20048;-52
2021/03/31 10:59:05;;;;;;;22.20;16.67;;;;;;;35.86;16.83;101631.03;4982205;28;20588;-49
2021/03/31 11:01:33;;;;;;;21.33;15.82;;;;;;;34.45;17.82;101616.75;4987781;28;20052;-52
2021/03/31 11:04:02;;;;;;;20.52;15.43;;;;;;;33.12;19.18;101620.78;4992842;28;20124;-54
2021/03/31 11:06:31;;;;;;;19.65;14.63;;;;;;;36.06;17.54;101622.63;4992320;28;20067;-50
2021/03/31 11:08:57;;;;;;;16.08;13.55;;;;;;;36.37;16.84;101618.69;4986080;28;20406;-51
2021/03/31 11:11:24;;;;;;;19.00;15.02;;;;;;;39.32;14.67;101621.78;4983129;28;20427;-53
2021/03/31 11:13:50;;;;;;;18.20;13.85;;;;;;;38.79;14.28;101609.03;4990615;28;21591;-52
2021/03/31 11:16:17;;;;;;;16.40;13.25;;;;;;;35.77;16.00;101602.31;4988349;28;20085;-52
2021/03/31 11:21:51;;;;;;;20.33;14.50;;;;;;;35.50;16.42;101589.88;4987381;28;20112;-56
2021/03/31 11:26:44;;;;;;;16.77;13.55;;;;;;;37.29;15.86;101588.22;4988001;28;20038;-53
2021/03/31 11:29:11;;;;;;;19.33;14.23;;;;;;;37.42;15.41;101578.38;4987591;28;20059;-53
2021/03/31 11:31:40;;;;;;;18.90;13.85;;;;;;;35.65;16.72;101578.19;4990784;28;20045;-56
2021/03/31 11:34:06;;;;;;;17.35;13.57;;;;;;;36.52;16.38;101582.16;4992811;28;20056;-54
2021/03/31 11:36:35;;;;;;;18.65;13.82;;;;;;;37.66;15.01;101580.19;4994221;28;20069;-54
2021/03/31 11:39:04;;;;;;;14.60;9.98;;;;;;;38.02;15.06;101573.91;4992638;28;20054;-56
2021/03/31 11:41:30;;;;;;;14.70;11.45;;;;;;;41.00;11.31;101577.97;4988654;28;20054;-55
2021/03/31 11:43:57;;;;;;;12.75;10.13;;;;;;;39.58;12.04;101571.38;4985891;28;20539;-54
2021/03/31 11:46:23;;;;;;;12.50;9.55;;;;;;;37.50;13.87;101561.78;4985317;28;20061;-54
2021/03/31 11:48:50;;;;;;;14.02;9.18;;;;;;;37.14;13.15;101552.81;4985443;28;20062;-52
2021/03/31 11:51:17;;;;;;;15.15;11.20;;;;;;;39.12;12.68;101564.41;4983247;28;20109;-55